Terminal Aerodrome Forecast
Issued by NWS

Home | Current Version | Previous Version | Text Only | Print | Product List | Glossary On
Versions: 1 2 3 4 5 6 7 8 9 10 11 12 13 14 15
925
FTUS43 KAPX 250520
TAFTVC
TAF
KTVC 250520Z 2506/2606 VRB03KT P6SM FEW080
     FM251200 15004KT P6SM BKN080
     FM260000 15006KT P6SM -SHRA OVC050
     FM260400 17008KT P6SM -SHRA OVC015=

USA.gov is the U.S. government's official web portal to all federal, state and local government web resources and services.